RYR99WT LPPD-GCLP
Flight info
| Callsign | RYR99WT |
|---|---|
| Flight time | N/A |
| Altitude | 35000 |
| Route | AMIXI DCT ETROX DCT 35N020W DCT IRKID/N0439F350 DCT ORTIS |
| Aircraft | B738/M-SDE2E3FGHIRWXY/LB1 |
Departure
| Time | 2026-04-28 09:55 |
|---|---|
| Airport | João Paulo II Airport (LPPD) |
Arrival
| Time | N/A |
|---|---|
| Airport | Gran Canaria Airport (GCLP) |
| Time | Latitude | Longitude | Altitude | Speed | Heading |
|---|---|---|---|---|---|
| 2026-04-28 09:42 | 37.74828 | -25.70998 | 267 ft | 0 kts | 22° |
| 2026-04-28 09:48 | 37.74838 | -25.71057 | 267 ft | 0 kts | 21° |
| 2026-04-28 09:51 | 37.74829 | -25.71061 | 267 ft | 3 kts | 25° |
| 2026-04-28 09:51 | 37.74812 | -25.71074 | 267 ft | 3 kts | 41° |
| 2026-04-28 09:51 | 37.74800 | -25.71092 | 267 ft | 3 kts | 71° |
| 2026-04-28 09:51 | 37.74798 | -25.71111 | 267 ft | 2 kts | 109° |
| 2026-04-28 09:52 | 37.74799 | -25.71114 | 267 ft | 0 kts | 111° |
| 2026-04-28 09:53 | 37.74795 | -25.71101 | 267 ft | 6 kts | 111° |
| 2026-04-28 09:54 | 37.74747 | -25.71020 | 267 ft | 15 kts | 167° |
| 2026-04-28 09:54 | 37.74653 | -25.71044 | 267 ft | 14 kts | 223° |
| 2026-04-28 09:54 | 37.74597 | -25.71041 | 267 ft | 3 kts | 108° |
| 2026-04-28 09:54 | 37.74595 | -25.71033 | 267 ft | 9 kts | 109° |
| 2026-04-28 09:55 | 37.74469 | -25.70630 | 267 ft | 88 kts | 111° |
| 2026-04-28 09:55 | 37.74154 | -25.69628 | 277 ft | 153 kts | 111° |
| 2026-04-28 09:55 | 37.73735 | -25.68290 | 831 ft | 171 kts | 112° |
| 2026-04-28 09:55 | 37.73196 | -25.66952 | 1804 ft | 168 kts | 129° |
| 2026-04-28 09:56 | 37.72362 | -25.66049 | 2865 ft | 153 kts | 146° |
| 2026-04-28 09:56 | 37.71435 | -25.65334 | 3439 ft | 163 kts | 153° |
| 2026-04-28 09:56 | 37.70403 | -25.64653 | 3970 ft | 174 kts | 156° |
| 2026-04-28 09:56 | 37.69236 | -25.63937 | 4302 ft | 198 kts | 157° |
| 2026-04-28 09:57 | 37.67915 | -25.63142 | 4575 ft | 224 kts | 157° |
| 2026-04-28 09:57 | 37.66445 | -25.62258 | 5046 ft | 241 kts | 157° |
| 2026-04-28 09:57 | 37.64902 | -25.61331 | 5773 ft | 250 kts | 157° |
| 2026-04-28 09:57 | 37.63296 | -25.60367 | 6260 ft | 269 kts | 157° |
| 2026-04-28 09:58 | 37.61547 | -25.59316 | 6692 ft | 289 kts | 156° |
| 2026-04-28 09:58 | 37.59672 | -25.58189 | 7155 ft | 306 kts | 156° |
| 2026-04-28 09:58 | 37.57713 | -25.57010 | 7873 ft | 314 kts | 156° |
| 2026-04-28 09:58 | 37.55725 | -25.55812 | 8645 ft | 319 kts | 156° |
| 2026-04-28 09:59 | 37.53708 | -25.54594 | 9408 ft | 324 kts | 156° |
| 2026-04-28 09:59 | 37.51659 | -25.53354 | 10162 ft | 329 kts | 156° |
| 2026-04-28 09:59 | 37.49586 | -25.52060 | 10878 ft | 335 kts | 153° |
| 2026-04-28 09:59 | 37.47629 | -25.50405 | 11608 ft | 342 kts | 143° |
| 2026-04-28 10:00 | 37.45859 | -25.48373 | 12308 ft | 348 kts | 136° |
| 2026-04-28 10:00 | 37.44198 | -25.46145 | 13026 ft | 352 kts | 133° |
| 2026-04-28 10:00 | 37.42567 | -25.43810 | 13729 ft | 356 kts | 133° |
| 2026-04-28 10:00 | 37.40929 | -25.41454 | 14421 ft | 360 kts | 133° |
| 2026-04-28 10:01 | 37.39829 | -25.39882 | 14870 ft | 362 kts | 133° |
| 2026-04-28 10:01 | 37.37580 | -25.36688 | 15763 ft | 367 kts | 133° |
| 2026-04-28 10:01 | 37.36450 | -25.35090 | 16190 ft | 370 kts | 133° |
| 2026-04-28 10:01 | 37.34731 | -25.32667 | 16809 ft | 374 kts | 133° |
| 2026-04-28 10:02 | 37.32987 | -25.30216 | 17418 ft | 378 kts | 133° |
| 2026-04-28 10:02 | 37.31227 | -25.27746 | 18013 ft | 381 kts | 133° |
| 2026-04-28 10:02 | 37.29447 | -25.25253 | 18599 ft | 385 kts | 133° |
| 2026-04-28 10:02 | 37.27647 | -25.22736 | 19152 ft | 390 kts | 133° |
| 2026-04-28 10:03 | 37.25847 | -25.20221 | 19690 ft | 394 kts | 133° |
| 2026-04-28 10:03 | 37.23989 | -25.17608 | 20226 ft | 398 kts | 133° |
| 2026-04-28 10:03 | 37.22142 | -25.14993 | 20750 ft | 402 kts | 133° |
| 2026-04-28 10:03 | 37.20274 | -25.12360 | 21255 ft | 406 kts | 133° |
| 2026-04-28 10:04 | 37.18383 | -25.09706 | 21768 ft | 409 kts | 133° |
| 2026-04-28 10:04 | 37.16473 | -25.07030 | 22235 ft | 413 kts | 133° |
| 2026-04-28 10:04 | 37.14543 | -25.04332 | 22693 ft | 417 kts | 133° |
| 2026-04-28 10:04 | 37.12596 | -25.01615 | 23160 ft | 421 kts | 133° |
| 2026-04-28 10:05 | 37.10630 | -24.98875 | 23594 ft | 424 kts | 133° |
| 2026-04-28 10:05 | 37.08648 | -24.96117 | 24019 ft | 428 kts | 133° |
| 2026-04-28 10:05 | 37.06646 | -24.93332 | 24465 ft | 431 kts | 133° |
| 2026-04-28 10:05 | 37.04632 | -24.90535 | 24906 ft | 434 kts | 133° |
| 2026-04-28 10:06 | 37.02602 | -24.87717 | 25315 ft | 437 kts | 133° |
| 2026-04-28 10:06 | 37.00559 | -24.84884 | 25732 ft | 440 kts | 133° |
| 2026-04-28 10:06 | 36.98529 | -24.82072 | 26131 ft | 442 kts | 133° |
| 2026-04-28 10:06 | 36.96464 | -24.79213 | 26525 ft | 445 kts | 133° |
| 2026-04-28 10:07 | 36.94354 | -24.76296 | 26910 ft | 447 kts | 133° |
| 2026-04-28 10:07 | 36.92288 | -24.73441 | 27260 ft | 450 kts | 133° |
| 2026-04-28 10:07 | 36.90153 | -24.70494 | 27619 ft | 453 kts | 133° |
| 2026-04-28 10:07 | 36.88035 | -24.67572 | 27974 ft | 455 kts | 133° |
| 2026-04-28 10:08 | 36.85903 | -24.64634 | 28318 ft | 457 kts | 133° |
| 2026-04-28 10:08 | 36.83762 | -24.61687 | 28656 ft | 459 kts | 133° |
| 2026-04-28 10:08 | 36.81637 | -24.58763 | 28977 ft | 462 kts | 133° |
| 2026-04-28 10:08 | 36.79469 | -24.55784 | 29265 ft | 465 kts | 133° |
| 2026-04-28 10:09 | 36.77293 | -24.52796 | 29575 ft | 467 kts | 133° |
| 2026-04-28 10:09 | 36.75102 | -24.49790 | 29878 ft | 469 kts | 133° |
| 2026-04-28 10:09 | 36.72904 | -24.46777 | 30169 ft | 471 kts | 133° |
| 2026-04-28 10:09 | 36.70697 | -24.43754 | 30504 ft | 471 kts | 133° |
| 2026-04-28 10:10 | 36.68490 | -24.40735 | 30904 ft | 470 kts | 133° |
| 2026-04-28 10:10 | 36.66288 | -24.37725 | 31257 ft | 470 kts | 133° |
| 2026-04-28 10:10 | 36.64084 | -24.34715 | 31629 ft | 470 kts | 133° |
| 2026-04-28 10:10 | 36.61883 | -24.31708 | 31964 ft | 470 kts | 133° |
| 2026-04-28 10:11 | 36.59699 | -24.28696 | 32308 ft | 469 kts | 133° |
| 2026-04-28 10:11 | 36.57501 | -24.25692 | 32657 ft | 468 kts | 134° |
| 2026-04-28 10:11 | 36.55323 | -24.22730 | 32987 ft | 468 kts | 134° |
| 2026-04-28 10:11 | 36.53101 | -24.19715 | 33309 ft | 468 kts | 134° |
| 2026-04-28 10:12 | 36.50896 | -24.16729 | 33608 ft | 468 kts | 134° |
| 2026-04-28 10:12 | 36.48696 | -24.13752 | 33940 ft | 467 kts | 134° |
| 2026-04-28 10:12 | 36.46490 | -24.10768 | 34231 ft | 467 kts | 134° |
| 2026-04-28 10:12 | 36.44294 | -24.07799 | 34537 ft | 467 kts | 134° |
| 2026-04-28 10:13 | 36.42200 | -24.04710 | 34841 ft | 467 kts | 128° |
| 2026-04-28 10:13 | 36.40410 | -24.01412 | 35080 ft | 469 kts | 121° |
| 2026-04-28 10:13 | 36.37503 | -23.94061 | 35110 ft | 472 kts | 112° |
| 2026-04-28 10:14 | 36.35062 | -23.86585 | 35108 ft | 468 kts | 112° |
| 2026-04-28 10:14 | 36.32613 | -23.79113 | 35108 ft | 468 kts | 112° |
| 2026-04-28 10:15 | 36.30140 | -23.71630 | 35108 ft | 468 kts | 112° |
| 2026-04-28 10:15 | 36.27664 | -23.64170 | 35107 ft | 468 kts | 112° |
| 2026-04-28 10:16 | 36.25221 | -23.56674 | 35107 ft | 469 kts | 111° |
| 2026-04-28 10:16 | 36.22764 | -23.49185 | 35106 ft | 469 kts | 112° |
| 2026-04-28 10:17 | 36.20290 | -23.41711 | 35107 ft | 469 kts | 112° |
| 2026-04-28 10:17 | 36.17809 | -23.34250 | 35106 ft | 469 kts | 112° |
| 2026-04-28 10:18 | 36.15348 | -23.26863 | 35105 ft | 464 kts | 112° |
| 2026-04-28 10:18 | 36.12895 | -23.19529 | 35104 ft | 460 kts | 114° |
| 2026-04-28 10:19 | 36.10439 | -23.12223 | 35104 ft | 461 kts | 114° |
| 2026-04-28 10:19 | 36.07970 | -23.04891 | 35103 ft | 462 kts | 114° |
| 2026-04-28 10:20 | 36.05496 | -22.97558 | 35103 ft | 462 kts | 114° |
| 2026-04-28 10:20 | 36.03018 | -22.90229 | 35102 ft | 462 kts | 114° |
| 2026-04-28 10:21 | 36.00532 | -22.82897 | 35101 ft | 463 kts | 114° |
| 2026-04-28 10:21 | 35.98042 | -22.75568 | 35101 ft | 462 kts | 113° |
| 2026-04-28 10:22 | 35.95549 | -22.68249 | 35099 ft | 463 kts | 113° |
| 2026-04-28 10:22 | 35.93050 | -22.60929 | 35099 ft | 463 kts | 113° |
| 2026-04-28 10:23 | 35.90543 | -22.53605 | 35099 ft | 464 kts | 113° |
| 2026-04-28 10:23 | 35.88032 | -22.46283 | 35098 ft | 463 kts | 113° |
| 2026-04-28 10:24 | 35.85516 | -22.38969 | 35097 ft | 463 kts | 113° |
| 2026-04-28 10:24 | 35.82998 | -22.31664 | 35097 ft | 464 kts | 113° |
| 2026-04-28 10:25 | 35.80469 | -22.24345 | 35095 ft | 464 kts | 113° |
| 2026-04-28 10:25 | 35.77939 | -22.17039 | 35095 ft | 464 kts | 113° |
| 2026-04-28 10:26 | 35.75401 | -22.09731 | 35094 ft | 464 kts | 113° |
| 2026-04-28 10:26 | 35.72863 | -22.02436 | 35093 ft | 464 kts | 113° |
| 2026-04-28 10:27 | 35.70319 | -21.95144 | 35094 ft | 464 kts | 113° |
| 2026-04-28 10:27 | 35.67786 | -21.87901 | 35092 ft | 464 kts | 113° |
| 2026-04-28 10:28 | 35.65231 | -21.80609 | 35091 ft | 464 kts | 113° |
| 2026-04-28 10:29 | 35.61390 | -21.69682 | 35090 ft | 464 kts | 113° |
| 2026-04-28 10:29 | 35.58824 | -21.62405 | 35089 ft | 464 kts | 113° |
| 2026-04-28 10:30 | 35.56252 | -21.55127 | 35088 ft | 465 kts | 113° |
| 2026-04-28 10:30 | 35.53689 | -21.47890 | 35088 ft | 465 kts | 113° |
| 2026-04-28 10:31 | 35.51109 | -21.40623 | 35087 ft | 465 kts | 113° |
| 2026-04-28 10:31 | 35.48519 | -21.33344 | 35086 ft | 464 kts | 113° |
| 2026-04-28 10:32 | 35.45927 | -21.26080 | 35085 ft | 465 kts | 113° |
| 2026-04-28 10:32 | 35.43328 | -21.18808 | 35084 ft | 465 kts | 113° |
| 2026-04-28 10:33 | 35.40726 | -21.11547 | 35084 ft | 465 kts | 113° |
| 2026-04-28 10:33 | 35.38114 | -21.04274 | 35083 ft | 466 kts | 113° |
| 2026-04-28 10:34 | 35.35497 | -20.97006 | 35082 ft | 466 kts | 113° |
| 2026-04-28 10:34 | 35.32877 | -20.89746 | 35081 ft | 466 kts | 113° |
| 2026-04-28 10:35 | 35.30251 | -20.82484 | 35081 ft | 467 kts | 113° |
| 2026-04-28 10:35 | 35.27620 | -20.75226 | 35080 ft | 466 kts | 113° |
| 2026-04-28 10:36 | 35.24981 | -20.67963 | 35080 ft | 466 kts | 113° |
| 2026-04-28 10:36 | 35.22340 | -20.60711 | 35079 ft | 467 kts | 113° |
| 2026-04-28 10:37 | 35.19711 | -20.53506 | 35078 ft | 467 kts | 113° |
| 2026-04-28 10:37 | 35.17041 | -20.46206 | 35078 ft | 467 kts | 113° |
| 2026-04-28 10:38 | 35.14405 | -20.39016 | 35077 ft | 467 kts | 113° |
| 2026-04-28 10:38 | 35.11750 | -20.31722 | 35077 ft | 467 kts | 112° |
| 2026-04-28 10:39 | 35.09115 | -20.24551 | 35077 ft | 466 kts | 113° |
| 2026-04-28 10:39 | 35.06437 | -20.17324 | 35076 ft | 466 kts | 113° |
| 2026-04-28 10:40 | 35.03758 | -20.10112 | 35076 ft | 466 kts | 113° |
| 2026-04-28 10:40 | 35.01082 | -20.02916 | 35075 ft | 466 kts | 113° |
| 2026-04-28 10:41 | 34.97883 | -19.96029 | 35076 ft | 469 kts | 122° |
| 2026-04-28 10:41 | 34.94242 | -19.89383 | 35075 ft | 471 kts | 122° |
| 2026-04-28 10:42 | 34.90625 | -19.82790 | 35075 ft | 470 kts | 122° |
| 2026-04-28 10:42 | 34.86992 | -19.76162 | 35074 ft | 470 kts | 122° |
| 2026-04-28 10:43 | 34.83360 | -19.69546 | 35074 ft | 470 kts | 122° |
| 2026-04-28 10:43 | 34.79740 | -19.62919 | 35074 ft | 470 kts | 122° |
| 2026-04-28 10:44 | 34.76138 | -19.56288 | 35074 ft | 470 kts | 122° |
| 2026-04-28 10:44 | 34.72518 | -19.49670 | 35074 ft | 470 kts | 122° |
| 2026-04-28 10:45 | 34.69503 | -19.44180 | 35074 ft | 469 kts | 122° |
| 2026-04-28 10:45 | 34.65870 | -19.37581 | 35074 ft | 469 kts | 122° |
| 2026-04-28 10:46 | 34.61638 | -19.29913 | 35073 ft | 471 kts | 122° |
| 2026-04-28 10:46 | 34.58586 | -19.24393 | 35074 ft | 470 kts | 122° |
| 2026-04-28 10:47 | 34.55061 | -19.18029 | 35074 ft | 470 kts | 122° |
| 2026-04-28 10:47 | 34.51435 | -19.11494 | 35074 ft | 471 kts | 122° |
| 2026-04-28 10:48 | 34.47776 | -19.04913 | 35073 ft | 470 kts | 122° |
| 2026-04-28 10:48 | 34.44118 | -18.98344 | 35074 ft | 470 kts | 122° |
| 2026-04-28 10:49 | 34.40451 | -18.91771 | 35074 ft | 471 kts | 122° |
| 2026-04-28 10:49 | 34.36780 | -18.85204 | 35074 ft | 471 kts | 122° |
| 2026-04-28 10:50 | 34.33105 | -18.78643 | 35074 ft | 471 kts | 122° |
| 2026-04-28 10:50 | 34.29425 | -18.72082 | 35074 ft | 471 kts | 122° |
| 2026-04-28 10:51 | 34.25746 | -18.65535 | 35075 ft | 471 kts | 122° |
| 2026-04-28 10:51 | 34.22058 | -18.58986 | 35075 ft | 471 kts | 121° |
| 2026-04-28 10:52 | 34.18366 | -18.52440 | 35075 ft | 471 kts | 121° |
| 2026-04-28 10:52 | 34.14671 | -18.45900 | 35076 ft | 472 kts | 121° |
| 2026-04-28 10:53 | 34.10970 | -18.39361 | 35076 ft | 471 kts | 121° |
| 2026-04-28 10:53 | 34.07292 | -18.32820 | 35076 ft | 471 kts | 121° |
| 2026-04-28 10:54 | 34.03587 | -18.26304 | 35076 ft | 472 kts | 121° |
| 2026-04-28 10:54 | 33.99864 | -18.19782 | 35076 ft | 471 kts | 121° |
| 2026-04-28 10:55 | 33.96147 | -18.13280 | 35077 ft | 471 kts | 121° |
| 2026-04-28 10:55 | 33.91875 | -18.07324 | 35076 ft | 476 kts | 137° |
| 2026-04-28 10:56 | 33.86352 | -18.02912 | 35079 ft | 478 kts | 150° |
| 2026-04-28 10:56 | 33.80406 | -17.99308 | 35078 ft | 478 kts | 153° |
| 2026-04-28 10:57 | 33.74523 | -17.95760 | 35078 ft | 478 kts | 153° |
| 2026-04-28 10:57 | 33.68530 | -17.92106 | 35078 ft | 478 kts | 152° |
| 2026-04-28 10:58 | 33.62599 | -17.88477 | 35079 ft | 478 kts | 152° |
| 2026-04-28 10:58 | 33.56681 | -17.84821 | 35080 ft | 478 kts | 152° |
| 2026-04-28 10:59 | 33.50761 | -17.81177 | 35081 ft | 478 kts | 152° |
| 2026-04-28 10:59 | 33.44848 | -17.77549 | 35081 ft | 477 kts | 152° |
| 2026-04-28 11:00 | 33.38935 | -17.73929 | 35081 ft | 477 kts | 153° |
| 2026-04-28 11:00 | 33.33028 | -17.70319 | 35082 ft | 477 kts | 153° |
| 2026-04-28 11:01 | 33.27114 | -17.66711 | 35082 ft | 477 kts | 153° |
| 2026-04-28 11:01 | 33.21190 | -17.63102 | 35082 ft | 477 kts | 153° |
| 2026-04-28 11:02 | 33.15271 | -17.59503 | 35082 ft | 477 kts | 153° |
| 2026-04-28 11:02 | 33.09356 | -17.55911 | 35082 ft | 476 kts | 153° |
| 2026-04-28 11:03 | 33.03440 | -17.52323 | 35089 ft | 476 kts | 153° |
| 2026-04-28 11:03 | 32.97538 | -17.48751 | 35094 ft | 477 kts | 153° |
| 2026-04-28 11:04 | 32.91616 | -17.45171 | 35092 ft | 476 kts | 153° |
| 2026-04-28 11:04 | 32.85739 | -17.41623 | 35091 ft | 476 kts | 153° |
| 2026-04-28 11:05 | 32.79826 | -17.38060 | 35090 ft | 475 kts | 153° |
| 2026-04-28 11:05 | 32.73919 | -17.34505 | 35090 ft | 476 kts | 153° |
| 2026-04-28 11:06 | 32.68014 | -17.30957 | 35089 ft | 475 kts | 153° |
| 2026-04-28 11:06 | 32.62110 | -17.27414 | 35085 ft | 475 kts | 153° |
| 2026-04-28 11:07 | 32.56199 | -17.23873 | 35083 ft | 475 kts | 153° |
| 2026-04-28 11:07 | 32.50294 | -17.20341 | 35083 ft | 475 kts | 153° |
| 2026-04-28 11:08 | 32.44386 | -17.16812 | 35083 ft | 475 kts | 153° |
| 2026-04-28 11:08 | 32.38486 | -17.13292 | 35083 ft | 475 kts | 154° |
| 2026-04-28 11:09 | 32.32608 | -17.09792 | 35083 ft | 475 kts | 154° |
| 2026-04-28 11:09 | 32.26698 | -17.06277 | 35084 ft | 475 kts | 154° |
| 2026-04-28 11:10 | 32.20784 | -17.02765 | 35083 ft | 475 kts | 154° |
| 2026-04-28 11:10 | 32.14877 | -16.99263 | 35084 ft | 475 kts | 154° |
| 2026-04-28 11:11 | 32.08970 | -16.95765 | 35084 ft | 476 kts | 154° |
| 2026-04-28 11:11 | 32.03030 | -16.92253 | 35084 ft | 476 kts | 154° |